createdAt,value
2018-06-27T00:00:09.499Z,42.66
2018-06-27T00:02:42.121Z,42.26
2018-06-27T00:05:16.695Z,42.68
2018-06-27T00:07:52.464Z,42.25
2018-06-27T00:10:26.243Z,42.72
2018-06-27T00:13:00.443Z,42.73
2018-06-27T00:15:35.335Z,42.52
2018-06-27T00:18:07.165Z,42.72
2018-06-27T00:20:41.599Z,42.15
2018-06-27T00:23:14.032Z,42.50
2018-06-27T00:26:03.915Z,42.49
2018-06-27T00:28:38.084Z,43.08
2018-06-27T00:31:12.234Z,43.19
2018-06-27T00:33:46.706Z,42.97
2018-06-27T00:36:20.318Z,43.58
2018-06-27T00:38:54.558Z,43.54
2018-06-27T00:41:27.218Z,43.09
2018-06-27T00:44:02.048Z,43.39
2018-06-27T00:46:39.553Z,43.23
2018-06-27T00:49:14.371Z,44.29
2018-06-27T00:51:48.382Z,44.10
2018-06-27T00:54:20.850Z,43.88
2018-06-27T00:56:56.107Z,43.87
2018-06-27T00:59:30.246Z,43.52
2018-06-27T01:02:03.536Z,43.74
2018-06-27T01:04:36.529Z,43.68
2018-06-27T01:07:09.045Z,44.15
2018-06-27T01:09:43.871Z,44.56
2018-06-27T01:12:15.852Z,44.57
2018-06-27T01:14:47.398Z,45.02
2018-06-27T01:17:19.766Z,44.51
2018-06-27T01:19:54.247Z,44.62
2018-06-27T01:22:25.752Z,44.34
2018-06-27T01:25:01.694Z,45.25
2018-06-27T01:27:37.111Z,45.19
2018-06-27T01:30:08.868Z,45.56
2018-06-27T01:32:40.457Z,45.18
2018-06-27T01:35:13.371Z,45.24
2018-06-27T01:37:46.829Z,44.69
2018-06-27T01:40:19.236Z,45.49
2018-06-27T01:42:53.571Z,45.77
2018-06-27T01:45:29.196Z,45.32
2018-06-27T01:48:11.997Z,45.37
2018-06-27T01:50:48.978Z,45.04
2018-06-27T01:53:21.484Z,45.21
2018-06-27T01:55:54.269Z,45.24
2018-06-27T01:58:28.973Z,45.67
2018-06-27T02:01:00.774Z,45.38
2018-06-27T02:03:32.136Z,45.77
2018-06-27T02:06:05.592Z,45.50
2018-06-27T02:08:38.106Z,45.93
2018-06-27T02:11:10.561Z,45.38
2018-06-27T02:13:42.573Z,45.46
2018-06-27T02:16:15.293Z,45.91
2018-06-27T02:18:49.119Z,45.19
2018-06-27T02:21:20.649Z,45.76
2018-06-27T02:23:53.294Z,45.44
2018-06-27T02:26:24.561Z,45.19
2018-06-27T02:28:56.654Z,45.63
2018-06-27T02:31:29.044Z,45.38
2018-06-27T02:34:00.706Z,46.17
2018-06-27T02:36:34.518Z,45.60
2018-06-27T02:39:12.021Z,46.43
2018-06-27T02:41:47.825Z,45.60
2018-06-27T02:44:21.945Z,45.93
2018-06-27T02:46:55.636Z,45.67
2018-06-27T02:49:27.370Z,45.48
2018-06-27T02:51:58.693Z,45.50
2018-06-27T02:54:33.969Z,46.21
2018-06-27T02:57:08.945Z,46.63
2018-06-27T02:59:41.378Z,46.54
2018-06-27T03:02:19.216Z,46.10
2018-06-27T03:04:50.825Z,45.76
2018-06-27T03:07:24.370Z,46.06
2018-06-27T03:09:57.622Z,45.85
2018-06-27T03:12:32.209Z,46.74
2018-06-27T03:15:08.022Z,46.18
2018-06-27T03:17:40.748Z,46.56
2018-06-27T03:20:12.607Z,46.35
2018-06-27T03:22:46.592Z,46.10
2018-06-27T03:25:21.508Z,46.44
2018-06-27T03:27:53.122Z,45.43
2018-06-27T03:30:26.651Z,45.69
2018-06-27T03:33:01.672Z,46.30
2018-06-27T03:35:34.377Z,46.45
2018-06-27T03:38:08.245Z,45.89
2018-06-27T03:40:40.912Z,46.64
2018-06-27T03:43:13.181Z,45.96
2018-06-27T03:45:44.805Z,46.13
2018-06-27T03:48:19.251Z,46.36
2018-06-27T03:50:53.967Z,46.46
2018-06-27T03:53:32.252Z,46.45
2018-06-27T03:56:06.505Z,46.36
2018-06-27T03:58:38.926Z,46.35
2018-06-27T04:01:12.614Z,46.45
2018-06-27T04:03:44.863Z,46.14
2018-06-27T04:06:17.254Z,45.32
2018-06-27T04:08:49.112Z,44.72
2018-06-27T04:11:21.364Z,42.94
2018-06-27T04:13:56.114Z,42.58
2018-06-27T04:16:33.763Z,41.52
2018-06-27T04:19:06.837Z,40.95
2018-06-27T04:21:39.570Z,39.91
2018-06-27T04:24:13.605Z,39.34
2018-06-27T04:26:46.351Z,38.46
2018-06-27T04:29:18.202Z,37.24
2018-06-27T04:31:52.158Z,37.75
2018-06-27T04:34:24.420Z,37.58
2018-06-27T04:36:58.877Z,36.45
2018-06-27T04:39:32.912Z,36.39
2018-06-27T04:42:04.504Z,35.89
2018-06-27T04:44:37.760Z,35.74
2018-06-27T04:47:12.468Z,34.05
2018-06-27T04:49:52.857Z,34.72
2018-06-27T04:52:25.156Z,34.33
2018-06-27T04:54:59.878Z,34.74
2018-06-27T04:57:36.943Z,33.95
2018-06-27T05:00:08.769Z,32.67
2018-06-27T05:02:41.484Z,33.69
2018-06-27T05:05:13.921Z,33.68
2018-06-27T05:07:45.309Z,33.41
2018-06-27T05:10:17.731Z,32.90
2018-06-27T05:12:50.768Z,32.83
2018-06-27T05:15:22.351Z,32.96
2018-06-27T05:17:53.497Z,32.64
2018-06-27T05:20:27.698Z,32.70
2018-06-27T05:22:59.701Z,32.26
2018-06-27T05:25:31.432Z,32.06
2018-06-27T05:28:04.275Z,32.56
2018-06-27T05:30:36.813Z,32.29
2018-06-27T05:33:08.965Z,32.09
2018-06-27T05:35:49.995Z,32.07
2018-06-27T05:38:24.432Z,32.63
2018-06-27T05:40:57.174Z,32.61
2018-06-27T05:43:28.821Z,32.72
2018-06-27T05:46:00.425Z,32.76
2018-06-27T05:48:31.909Z,32.00
2018-06-27T05:53:26.981Z,32.30
2018-06-27T05:56:00.372Z,30.07
2018-06-27T05:58:34.843Z,30.47
2018-06-27T06:01:07.814Z,29.84
2018-06-27T06:03:42.885Z,30.67
2018-06-27T06:06:17.458Z,30.64
2018-06-27T06:08:50.460Z,30.63
2018-06-27T06:11:23.709Z,30.29
2018-06-27T06:13:55.490Z,30.67
2018-06-27T06:16:28.956Z,29.94
2018-06-27T06:19:03.057Z,29.64
2018-06-27T06:21:36.503Z,28.99
2018-06-27T06:24:08.979Z,29.35
2018-06-27T06:26:41.517Z,29.99
2018-06-27T06:29:14.815Z,28.83
2018-06-27T06:31:46.521Z,28.35
2018-06-27T06:34:18.033Z,28.76
2018-06-27T06:36:49.751Z,28.77
2018-06-27T06:39:20.509Z,28.54
2018-06-27T06:41:54.762Z,28.09
2018-06-27T06:44:27.939Z,28.40
2018-06-27T06:47:00.714Z,28.33
2018-06-27T06:49:33.372Z,28.51
2018-06-27T06:52:05.998Z,27.23
2018-06-27T06:54:39.408Z,27.94
2018-06-27T06:57:11.503Z,27.91
2018-06-27T06:59:43.678Z,27.44
2018-06-27T07:02:17.072Z,26.64
2018-06-27T07:04:49.977Z,27.28
2018-06-27T07:07:23.957Z,26.28
2018-06-27T07:09:58.718Z,26.75
2018-06-27T07:12:39.075Z,27.05
2018-06-27T07:15:15.445Z,26.88
2018-06-27T07:17:50.547Z,27.15
2018-06-27T07:20:40.555Z,27.96
2018-06-27T07:23:18.732Z,28.08
2018-06-27T07:25:55.392Z,27.87
2018-06-27T07:28:27.611Z,28.24
2018-06-27T07:31:00.949Z,28.36
2018-06-27T07:33:33.383Z,27.62
2018-06-27T07:36:06.039Z,27.53
2018-06-27T07:38:40.692Z,27.66
2018-06-27T07:41:13.365Z,27.21
2018-06-27T07:43:46.403Z,25.93
2018-06-27T07:46:20.360Z,24.78
2018-06-27T07:49:03.319Z,25.27
2018-06-27T07:54:18.224Z,25.51
2018-06-27T07:56:51.804Z,25.78
2018-06-27T07:59:45.037Z,24.77
2018-06-27T08:02:27.420Z,25.77
2018-06-27T08:05:02.675Z,26.25
2018-06-27T08:07:34.430Z,25.25
2018-06-27T08:10:12.461Z,25.25
2018-06-27T08:15:43.457Z,24.87
2018-06-27T08:18:21.177Z,24.50
2018-06-27T08:20:55.737Z,24.40
2018-06-27T08:23:35.484Z,23.89
2018-06-27T08:26:15.642Z,22.91
2018-06-27T08:29:03.014Z,22.44
2018-06-27T08:31:38.793Z,22.79
2018-06-27T08:34:13.596Z,22.44
2018-06-27T08:36:55.579Z,22.83
2018-06-27T08:39:30.474Z,22.17
2018-06-27T08:42:15.313Z,21.61
2018-06-27T08:44:55.866Z,21.37
2018-06-27T08:47:35.674Z,22.19
2018-06-27T08:50:11.556Z,22.10
2018-06-27T08:52:50.607Z,22.51
2018-06-27T08:55:27.050Z,22.03
2018-06-27T08:58:56.858Z,22.72
2018-06-27T09:01:51.319Z,22.17
2018-06-27T09:04:41.354Z,22.36
2018-06-27T09:07:25.880Z,22.58
2018-06-27T09:13:07.606Z,22.07
2018-06-27T09:15:50.426Z,22.44
2018-06-27T09:18:36.704Z,22.02
2018-06-27T09:24:18.797Z,21.27
2018-06-27T09:29:46.881Z,22.06
2018-06-27T09:32:30.744Z,21.90
2018-06-27T09:56:45.544Z,20.68
2018-06-27T10:03:13.504Z,19.68
2018-06-27T10:15:09.912Z,20.35
2018-06-27T10:18:21.340Z,19.58
2018-06-27T10:31:21.318Z,20.62
2018-06-27T10:34:14.506Z,21.11
2018-06-27T10:36:51.427Z,20.46
2018-06-27T10:39:42.086Z,21.73
2018-06-27T10:42:17.546Z,21.57
2018-06-27T10:44:54.572Z,21.63
2018-06-27T10:53:22.508Z,19.83
2018-06-27T10:58:56.366Z,19.43
2018-06-27T11:01:45.998Z,20.36
2018-06-27T11:04:23.126Z,19.85
2018-06-27T11:07:06.968Z,18.81
2018-06-27T11:09:56.266Z,18.45
2018-06-27T11:12:33.992Z,17.64
2018-06-27T11:15:18.050Z,17.15
2018-06-27T11:17:53.184Z,17.16
2018-06-27T11:20:31.425Z,17.29
2018-06-27T11:23:07.712Z,17.66
2018-06-27T11:25:44.263Z,16.89
2018-06-27T11:28:20.526Z,16.22
2018-06-27T11:30:55.263Z,16.42
2018-06-27T11:33:36.401Z,16.46
2018-06-27T11:36:11.289Z,15.68
2018-06-27T11:38:46.511Z,16.05
2018-06-27T11:41:20.712Z,15.63
2018-06-27T11:44:06.305Z,15.18
2018-06-27T11:46:40.916Z,15.43
2018-06-27T11:49:17.876Z,15.40
2018-06-27T11:51:51.298Z,15.67
2018-06-27T11:54:26.301Z,16.09
2018-06-27T11:57:00.234Z,15.51
2018-06-27T11:59:34.548Z,16.12
2018-06-27T12:02:07.953Z,16.48
2018-06-27T12:04:41.238Z,15.89
2018-06-27T12:07:17.529Z,15.05
2018-06-27T12:09:52.410Z,14.83
2018-06-27T12:12:27.594Z,14.65
2018-06-27T12:15:07.408Z,15.63
2018-06-27T12:17:41.745Z,15.69
2018-06-27T12:20:17.553Z,15.78
2018-06-27T12:22:52.441Z,16.74
2018-06-27T12:25:26.745Z,16.34
2018-06-27T12:28:01.907Z,16.23
2018-06-27T12:30:35.163Z,16.66
2018-06-27T12:33:09.372Z,16.62
2018-06-27T12:35:44.754Z,16.72
2018-06-27T12:38:19.153Z,17.79
2018-06-27T12:40:53.375Z,17.15
2018-06-27T12:43:27.348Z,17.14
2018-06-27T12:46:02.486Z,18.49
2018-06-27T12:48:36.140Z,18.98
2018-06-27T12:51:12.942Z,18.64
2018-06-27T12:53:46.674Z,18.46
2018-06-27T12:56:20.222Z,17.88
2018-06-27T12:58:56.025Z,19.31
2018-06-27T13:01:30.555Z,19.27
2018-06-27T13:04:02.430Z,18.69
2018-06-27T13:06:36.373Z,19.60
2018-06-27T13:09:10.585Z,19.06
2018-06-27T13:11:44.786Z,19.51
2018-06-27T13:14:17.213Z,19.11
2018-06-27T13:16:50.390Z,19.70
2018-06-27T13:19:31.863Z,19.22
2018-06-27T13:22:07.616Z,19.19
2018-06-27T13:27:33.840Z,19.28
2018-06-27T13:30:08.368Z,19.87
2018-06-27T13:32:42.818Z,20.37
2018-06-27T13:35:21.213Z,19.84
2018-06-27T13:37:55.827Z,19.50
2018-06-27T13:40:33.264Z,19.56
2018-06-27T13:43:11.405Z,18.78
2018-06-27T13:48:44.329Z,17.64
2018-06-27T13:51:28.583Z,17.80
2018-06-27T13:54:03.408Z,17.67
2018-06-27T13:56:36.597Z,17.68
2018-06-27T13:59:30.425Z,17.36
2018-06-27T14:02:05.600Z,17.82
2018-06-27T14:04:37.220Z,16.99
2018-06-27T14:07:14.893Z,17.26
2018-06-27T14:09:46.429Z,17.95
2018-06-27T14:12:19.269Z,17.38
2018-06-27T14:14:50.908Z,17.53
2018-06-27T14:17:23.561Z,17.46
2018-06-27T14:19:54.851Z,18.10
2018-06-27T14:22:28.773Z,17.00
2018-06-27T14:25:01.245Z,17.84
2018-06-27T14:27:36.171Z,17.34
2018-06-27T14:30:10.432Z,16.76
2018-06-27T14:32:46.039Z,17.37
2018-06-27T14:35:19.422Z,16.97
2018-06-27T14:37:53.640Z,16.94
2018-06-27T14:40:28.723Z,17.08
2018-06-27T14:43:02.889Z,16.42
2018-06-27T14:45:37.993Z,16.84
2018-06-27T14:48:13.727Z,15.84
2018-06-27T14:50:47.092Z,15.98
2018-06-27T14:53:41.453Z,16.45
2018-06-27T14:56:16.606Z,16.57
2018-06-27T14:58:53.910Z,16.68
2018-06-27T15:01:28.838Z,16.18
2018-06-27T15:04:07.753Z,16.36
2018-06-27T15:06:42.339Z,16.38
2018-06-27T15:09:18.474Z,16.54
2018-06-27T15:11:53.720Z,15.59
2018-06-27T15:14:28.669Z,16.34
2018-06-27T15:17:04.262Z,15.93
2018-06-27T15:29:37.865Z,15.62
2018-06-27T15:32:15.593Z,15.09
2018-06-27T15:34:52.219Z,15.30
2018-06-27T15:37:30.236Z,15.09
2018-06-27T15:40:06.394Z,15.56
2018-06-27T15:42:41.495Z,15.16
2018-06-27T15:45:18.500Z,14.84
2018-06-27T15:47:53.748Z,15.12
2018-06-27T15:50:30.699Z,15.14
2018-06-27T15:53:06.584Z,15.20
2018-06-27T15:55:45.499Z,16.22
2018-06-27T15:58:20.632Z,15.36
2018-06-27T16:00:55.476Z,16.00
2018-06-27T16:03:33.439Z,15.70
2018-06-27T16:06:12.698Z,16.29
2018-06-27T16:08:48.533Z,16.16
2018-06-27T16:11:28.313Z,15.83
2018-06-27T16:14:07.337Z,15.81
2018-06-27T16:16:47.693Z,16.24
2018-06-27T16:19:26.465Z,15.83
2018-06-27T16:22:08.314Z,16.27
2018-06-27T16:24:46.086Z,15.47
2018-06-27T16:27:21.855Z,15.58
2018-06-27T16:30:04.367Z,16.64
2018-06-27T16:32:38.042Z,15.69
2018-06-27T16:35:14.893Z,15.87
2018-06-27T16:38:01.827Z,15.84
2018-06-27T16:40:38.687Z,16.59
2018-06-27T16:43:12.765Z,16.28
2018-06-27T16:45:44.395Z,16.73
2018-06-27T16:48:16.890Z,16.85
2018-06-27T16:50:52.051Z,16.87
2018-06-27T16:53:24.467Z,17.06
2018-06-27T16:55:57.847Z,17.32
2018-06-27T16:58:31.590Z,18.50
2018-06-27T17:01:06.402Z,18.04
2018-06-27T17:03:42.509Z,18.57
2018-06-27T17:06:19.412Z,18.26
2018-06-27T17:08:53.634Z,18.12
2018-06-27T17:11:31.711Z,17.54
2018-06-27T17:14:09.746Z,17.55
2018-06-27T17:16:49.999Z,17.06
2018-06-27T17:19:29.492Z,16.82
2018-06-27T17:22:09.840Z,17.32
2018-06-27T17:24:49.506Z,17.00
2018-06-27T17:27:24.500Z,17.78
2018-06-27T17:30:08.747Z,17.95
2018-06-27T17:32:45.457Z,17.95
2018-06-27T17:35:25.666Z,17.65
2018-06-27T17:38:04.649Z,18.13
2018-06-27T17:40:37.281Z,17.74
2018-06-27T17:43:11.234Z,18.06
2018-06-27T17:45:56.304Z,18.26
2018-06-27T17:48:37.707Z,18.15
2018-06-27T17:51:17.024Z,17.34
2018-06-27T17:54:01.508Z,17.36
2018-06-27T17:56:40.807Z,18.32
2018-06-27T17:59:27.416Z,18.28
2018-06-27T18:02:08.644Z,17.96
2018-06-27T18:04:50.064Z,18.12
2018-06-27T18:07:31.764Z,18.57
2018-06-27T18:10:11.682Z,18.39
2018-06-27T18:12:51.482Z,19.52
2018-06-27T18:15:35.484Z,20.04
2018-06-27T18:18:17.611Z,20.53
2018-06-27T18:20:55.064Z,21.17
2018-06-27T18:23:45.889Z,21.05
2018-06-27T18:29:10.541Z,22.06
2018-06-27T18:31:49.614Z,22.51
2018-06-27T18:34:27.156Z,22.92
2018-06-27T18:37:02.516Z,21.91
2018-06-27T18:39:41.860Z,22.50
2018-06-27T18:42:19.153Z,23.25
2018-06-27T18:44:59.975Z,22.98
2018-06-27T18:47:34.247Z,23.74
2018-06-27T18:50:14.799Z,23.79
2018-06-27T18:52:50.643Z,23.73
2018-06-27T18:55:24.150Z,23.75
2018-06-27T18:58:01.622Z,23.99
2018-06-27T19:00:41.296Z,24.04
2018-06-27T19:03:17.797Z,24.45
2018-06-27T19:05:57.119Z,24.31
2018-06-27T19:08:36.359Z,24.46
2018-06-27T19:11:09.751Z,24.72
2018-06-27T19:14:01.644Z,24.66
2018-06-27T19:16:36.282Z,25.15
2018-06-27T19:19:11.447Z,25.26
2018-06-27T19:21:49.519Z,25.61
2018-06-27T19:24:23.639Z,26.24
2018-06-27T19:27:00.272Z,26.72
2018-06-27T19:29:39.768Z,26.67
2018-06-27T19:32:15.712Z,26.57
2018-06-27T19:34:52.415Z,26.59
2018-06-27T19:37:36.016Z,27.33
2018-06-27T19:40:16.784Z,27.06
2018-06-27T19:42:54.786Z,27.49
2018-06-27T19:45:33.286Z,27.38
2018-06-27T19:48:22.509Z,28.06
2018-06-27T19:51:01.532Z,27.72
2018-06-27T19:54:12.607Z,28.32
2018-06-27T19:56:49.815Z,28.14
2018-06-27T19:59:25.476Z,28.23
2018-06-27T20:02:00.487Z,28.95
2018-06-27T20:04:46.045Z,28.60
2018-06-27T20:07:30.570Z,28.79
2018-06-27T20:10:35.257Z,29.72
2018-06-27T20:13:20.985Z,28.97
2018-06-27T20:15:57.719Z,29.24
2018-06-27T20:18:36.789Z,29.46
2018-06-27T20:21:22.506Z,30.16
2018-06-27T20:26:30.739Z,29.54
2018-06-27T20:32:05.429Z,29.99
2018-06-27T20:34:45.844Z,30.47
2018-06-27T20:37:20.509Z,29.64
2018-06-27T20:40:02.901Z,29.83
2018-06-27T20:42:46.648Z,29.74
2018-06-27T20:45:23.893Z,29.83
2018-06-27T20:47:57.650Z,30.18
2018-06-27T20:50:31.765Z,30.12
2018-06-27T20:53:06.809Z,30.13
2018-06-27T20:55:43.592Z,29.94
2018-06-27T20:58:19.169Z,30.16
2018-06-27T21:00:58.815Z,30.16
2018-06-27T21:03:48.683Z,30.16
2018-06-27T21:06:23.847Z,29.85
2018-06-27T21:09:00.016Z,30.30
2018-06-27T21:11:37.509Z,30.80
2018-06-27T21:14:17.162Z,29.88
2018-06-27T21:16:53.016Z,29.98
2018-06-27T21:19:29.420Z,30.70
2018-06-27T21:22:03.202Z,29.96
2018-06-27T21:24:44.918Z,30.70
2018-06-27T21:27:22.753Z,30.33
2018-06-27T21:30:00.973Z,30.76
2018-06-27T21:32:39.490Z,30.48
2018-06-27T21:35:14.695Z,30.45
2018-06-27T21:37:59.722Z,30.60
2018-06-27T21:40:40.216Z,30.99
2018-06-27T21:43:26.645Z,31.45
2018-06-27T21:46:07.555Z,31.19
2018-06-27T21:48:44.230Z,30.83
2018-06-27T21:51:20.704Z,31.26
2018-06-27T21:53:55.417Z,31.67
2018-06-27T21:56:43.687Z,31.76
2018-06-27T21:59:17.828Z,30.88
2018-06-27T22:01:56.390Z,31.85
2018-06-27T22:04:36.279Z,31.93
2018-06-27T22:07:20.685Z,32.16
2018-06-27T22:09:55.766Z,32.16
2018-06-27T22:12:29.187Z,31.82
2018-06-27T22:15:05.227Z,32.21
2018-06-27T22:17:39.647Z,32.57
2018-06-27T22:20:14.519Z,32.81
2018-06-27T22:22:50.864Z,32.08
2018-06-27T22:25:25.137Z,32.31
2018-06-27T22:28:05.980Z,33.20
2018-06-27T22:30:42.858Z,32.65
2018-06-27T22:33:18.082Z,32.59
2018-06-27T22:35:52.405Z,33.30
2018-06-27T22:38:26.250Z,32.74
2018-06-27T22:41:01.392Z,33.02
2018-06-27T22:43:34.013Z,33.01
2018-06-27T22:46:11.391Z,33.27
2018-06-27T22:48:48.479Z,33.06
2018-06-27T22:51:23.718Z,33.74
2018-06-27T22:54:05.195Z,33.23
2018-06-27T22:56:43.479Z,33.51
2018-06-27T22:59:25.936Z,33.82
2018-06-27T23:02:21.635Z,34.18
2018-06-27T23:04:58.282Z,33.71
2018-06-27T23:07:48.639Z,33.63
2018-06-27T23:10:21.710Z,33.94
2018-06-27T23:12:58.423Z,34.47
2018-06-27T23:15:32.786Z,34.12
2018-06-27T23:18:09.467Z,34.00
2018-06-27T23:20:45.883Z,34.84
2018-06-27T23:23:19.965Z,34.28
2018-06-27T23:25:59.566Z,33.93
2018-06-27T23:28:35.319Z,34.00
2018-06-27T23:31:09.981Z,34.97
2018-06-27T23:33:44.568Z,34.81
2018-06-27T23:36:23.234Z,34.70
2018-06-27T23:38:57.879Z,34.77
2018-06-27T23:41:34.447Z,34.12
2018-06-27T23:44:14.205Z,35.14
2018-06-27T23:46:56.829Z,34.46
2018-06-27T23:49:30.746Z,34.68
2018-06-27T23:52:08.615Z,34.58
2018-06-27T23:55:00.354Z,35.02
2018-06-27T23:57:35.828Z,34.71
